Time;durP1;ratioP1;P1;durP2;ratioP2;P2;SDS_P1;SDS_P2;PMS_P1;PMS_P2;Temp;Humidity;BMP_temperature;BMP_pressure;BME280_temperature;BME280_humidity;BME280_pressure;Samples;Min_cycle;Max_cycle;Signal;HPM_P1;HPM_P2
2022/06/06 00:00:52;;;;;;;10.48;8.35;;;15.80;99.90;;;;;;5135619;27;20045;-72
2022/06/06 00:03:19;;;;;;;9.38;8.48;;;15.80;99.90;;;;;;5150936;27;20079;-74
2022/06/06 00:05:47;;;;;;;11.35;8.98;;;15.80;99.90;;;;;;5151159;27;20053;-74
2022/06/06 00:08:14;;;;;;;11.63;9.75;;;15.80;99.90;;;;;;5132883;27;20047;-73
2022/06/06 00:10:45;;;;;;;11.95;8.75;;;15.80;99.90;;;;;;5133500;27;20218;-74
2022/06/06 00:13:13;;;;;;;11.05;9.55;;;15.80;99.90;;;;;;5139336;27;20204;-73
2022/06/06 00:15:39;;;;;;;10.43;8.70;;;15.80;99.90;;;;;;5134582;27;20034;-72
2022/06/06 00:18:05;;;;;;;9.10;8.20;;;15.70;99.90;;;;;;5134776;27;20036;-74
2022/06/06 00:20:32;;;;;;;10.13;8.32;;;15.70;99.90;;;;;;5134721;27;20106;-74
2022/06/06 00:22:59;;;;;;;14.70;9.02;;;15.70;99.90;;;;;;5139006;27;20046;-73
2022/06/06 00:25:25;;;;;;;9.43;8.30;;;15.60;99.90;;;;;;5151299;27;20043;-73
2022/06/06 00:27:50;;;;;;;11.98;8.70;;;15.60;99.90;;;;;;5139715;27;20050;-74
2022/06/06 00:30:17;;;;;;;11.13;8.60;;;15.60;99.90;;;;;;5148403;27;20026;-73
2022/06/06 00:35:27;;;;;;;10.40;7.85;;;15.60;99.90;;;;;;5139000;27;20057;-73
2022/06/06 00:37:53;;;;;;;12.68;8.02;;;15.60;99.90;;;;;;5137178;27;20038;-73
2022/06/06 00:40:22;;;;;;;9.02;8.13;;;15.60;99.90;;;;;;5114345;27;20477;-73
2022/06/06 00:42:48;;;;;;;11.02;8.05;;;15.50;99.90;;;;;;5137848;27;20100;-73
2022/06/06 00:45:22;;;;;;;10.57;8.70;;;15.50;99.90;;;;;;5148465;27;20079;-73
2022/06/06 00:48:19;;;;;;;8.98;8.07;;;15.50;99.90;;;;;;5122531;27;20047;-73
2022/06/06 00:51:00;;;;;;;10.57;9.05;;;15.50;99.90;;;;;;5150882;27;20035;-74
2022/06/06 00:53:37;;;;;;;9.88;8.88;;;15.50;99.90;;;;;;5141682;27;20038;-73
2022/06/06 00:56:14;;;;;;;9.45;8.50;;;15.50;99.90;;;;;;5139801;27;20428;-74
2022/06/06 00:58:41;;;;;;;9.45;8.45;;;15.50;99.90;;;;;;5127970;27;20045;-73
2022/06/06 01:01:08;;;;;;;11.20;9.52;;;15.40;99.90;;;;;;5134914;27;20121;-74
2022/06/06 01:03:36;;;;;;;12.00;10.13;;;15.40;99.90;;;;;;5145116;27;20046;-74
2022/06/06 01:06:02;;;;;;;12.45;10.30;;;15.40;99.90;;;;;;5138444;27;20087;-74
2022/06/06 01:08:29;;;;;;;14.38;11.63;;;15.40;99.90;;;;;;5137934;27;20077;-74
2022/06/06 01:10:54;;;;;;;14.40;10.43;;;15.30;99.90;;;;;;5137351;27;20113;-74
2022/06/06 01:13:23;;;;;;;11.90;9.68;;;15.40;99.90;;;;;;5136814;27;20125;-74
2022/06/06 01:15:55;;;;;;;14.30;10.52;;;15.30;99.90;;;;;;5140312;27;20121;-74
2022/06/06 01:18:36;;;;;;;12.93;9.87;;;15.30;99.90;;;;;;5119270;27;20117;-74
2022/06/06 01:21:39;;;;;;;10.65;9.55;;;15.30;99.90;;;;;;5131787;27;20280;-74
2022/06/06 01:24:30;;;;;;;14.45;10.55;;;15.30;99.90;;;;;;5133634;27;20485;-74
2022/06/06 01:27:31;;;;;;;14.90;11.07;;;15.20;99.90;;;;;;5132882;27;20047;-75
2022/06/06 01:30:02;;;;;;;14.95;11.68;;;15.20;99.90;;;;;;5125224;27;20042;-74
2022/06/06 01:32:33;;;;;;;12.52;11.23;;;15.20;99.90;;;;;;5133643;27;20043;-75
2022/06/06 01:34:59;;;;;;;14.85;10.75;;;15.10;99.90;;;;;;5137022;27;20043;-74
2022/06/06 01:37:31;;;;;;;13.13;10.45;;;15.10;99.90;;;;;;5133082;27;20039;-75
2022/06/06 01:39:59;;;;;;;15.23;11.35;;;15.10;99.90;;;;;;5127039;27;20457;-75
2022/06/06 01:42:34;;;;;;;14.60;11.27;;;15.10;99.90;;;;;;5118375;27;20034;-74
2022/06/06 01:45:06;;;;;;;11.63;10.13;;;15.10;99.90;;;;;;5135639;27;20051;-75
2022/06/06 01:47:34;;;;;;;;;;;15.10;99.90;;;;;;5128609;27;20039;-74
2022/06/06 01:50:01;;;;;;;10.55;9.00;;;15.10;99.90;;;;;;5137767;27;20166;-74
2022/06/06 01:52:27;;;;;;;11.23;9.20;;;15.10;99.90;;;;;;5132997;27;20053;-75
2022/06/06 01:54:57;;;;;;;9.55;8.57;;;15.10;99.90;;;;;;5135595;27;20129;-75
2022/06/06 01:57:25;;;;;;;10.82;8.63;;;15.10;99.90;;;;;;5135300;27;20125;-75
2022/06/06 01:59:52;;;;;;;9.88;8.43;;;15.10;99.90;;;;;;5133163;27;20079;-74
2022/06/06 02:02:18;;;;;;;10.35;7.70;;;15.10;99.90;;;;;;5134341;27;20108;-74
2022/06/06 02:04:44;;;;;;;10.38;8.48;;;15.20;99.90;;;;;;5135257;27;20045;-74
2022/06/06 02:07:10;;;;;;;12.13;9.30;;;15.10;99.90;;;;;;5130609;27;20039;-74
2022/06/06 02:09:36;;;;;;;19.95;14.20;;;15.10;99.90;;;;;;5143687;27;20117;-73
2022/06/06 02:12:02;;;;;;;27.67;21.02;;;15.10;99.90;;;;;;5146997;27;20035;-75
2022/06/06 02:14:29;;;;;;;31.35;21.35;;;15.20;99.90;;;;;;5136494;27;20039;-73
2022/06/06 02:16:54;;;;;;;32.83;22.65;;;15.20;99.90;;;;;;5138585;27;20035;-74
2022/06/06 02:19:20;;;;;;;27.80;20.55;;;15.10;99.90;;;;;;5137223;27;20039;-74
2022/06/06 02:21:46;;;;;;;23.90;18.33;;;15.10;99.90;;;;;;5144160;27;20398;-75
2022/06/06 02:24:12;;;;;;;24.13;18.80;;;15.20;99.90;;;;;;5144565;27;20122;-74
2022/06/06 02:26:38;;;;;;;28.40;20.73;;;15.20;99.90;;;;;;5143160;27;20457;-75
2022/06/06 02:29:05;;;;;;;23.40;18.55;;;15.10;99.90;;;;;;5123398;27;20070;-75
2022/06/06 02:31:37;;;;;;;23.75;19.48;;;15.10;99.90;;;;;;5135617;27;20162;-75
2022/06/06 02:34:07;;;;;;;23.45;18.65;;;15.10;99.90;;;;;;5138306;27;20042;-75
2022/06/06 02:36:34;;;;;;;24.50;19.42;;;15.10;99.90;;;;;;5137350;27;20278;-74
2022/06/06 02:39:00;;;;;;;19.05;16.35;;;15.00;99.90;;;;;;5139788;27;20039;-74
2022/06/06 02:41:26;;;;;;;20.60;17.83;;;15.00;99.90;;;;;;5142562;27;20546;-75
2022/06/06 02:43:52;;;;;;;24.42;18.58;;;15.00;99.90;;;;;;5139070;27;20047;-74
2022/06/06 02:46:18;;;;;;;26.83;18.92;;;14.90;99.90;;;;;;5139674;27;20039;-74
2022/06/06 02:48:44;;;;;;;22.25;16.50;;;14.90;99.90;;;;;;5144283;27;20103;-74
2022/06/06 02:51:10;;;;;;;26.15;16.38;;;14.90;99.90;;;;;;5141395;27;20047;-75
2022/06/06 02:53:36;;;;;;;25.65;17.23;;;14.90;99.90;;;;;;5140400;27;20471;-74
2022/06/06 02:56:03;;;;;;;40.42;22.80;;;14.80;99.90;;;;;;5133466;27;20390;-75
2022/06/06 02:58:29;;;;;;;40.60;23.42;;;14.80;99.90;;;;;;5142063;27;20038;-75
2022/06/06 03:01:04;;;;;;;48.72;25.52;;;14.80;99.90;;;;;;5137710;27;20042;-75
2022/06/06 03:03:31;;;;;;;48.60;26.83;;;14.70;99.90;;;;;;5122690;27;20039;-75
2022/06/06 03:06:10;;;;;;;68.75;32.70;;;14.70;99.90;;;;;;5137071;27;20114;-75
2022/06/06 03:08:35;;;;;;;65.07;32.33;;;14.70;99.90;;;;;;5135897;27;20287;-75
2022/06/06 03:11:19;;;;;;;75.97;35.75;;;14.60;99.90;;;;;;5139035;27;20512;-75
2022/06/06 03:14:17;;;;;;;72.65;35.55;;;14.60;99.90;;;;;;5135863;27;20034;-74
2022/06/06 03:23:17;;;;;;;74.22;35.38;;;14.60;99.90;;;;;;5141480;27;20047;-74
2022/06/06 03:25:58;;;;;;;74.00;36.42;;;14.50;99.90;;;;;;5137213;27;20130;-75
2022/06/06 03:28:38;;;;;;;72.72;34.85;;;14.50;99.90;;;;;;5138561;27;20393;-75
2022/06/06 03:31:29;;;;;;;84.38;37.65;;;14.50;99.90;;;;;;5114292;27;20643;-75
2022/06/06 03:33:57;;;;;;;69.95;28.90;;;14.40;99.90;;;;;;5134467;27;20385;-75
2022/06/06 03:36:28;;;;;;;43.30;20.55;;;14.50;99.90;;;;;;5144560;27;20443;-75
2022/06/06 03:39:03;;;;;;;38.72;18.67;;;14.40;99.90;;;;;;5136930;27;20433;-75
2022/06/06 03:41:31;;;;;;;29.48;15.88;;;14.40;99.90;;;;;;5122682;27;20420;-75
2022/06/06 03:44:06;;;;;;;25.45;13.98;;;14.40;99.90;;;;;;5126344;27;20054;-75
2022/06/06 03:46:53;;;;;;;24.60;14.20;;;14.30;99.90;;;;;;5135416;27;20443;-75
2022/06/06 03:50:10;;;;;;;25.73;13.95;;;14.30;99.90;;;;;;5143471;27;20129;-75
2022/06/06 03:52:48;;;;;;;27.23;14.63;;;14.30;99.90;;;;;;5142346;27;20469;-75
2022/06/06 03:55:33;;;;;;;24.92;13.48;;;14.30;99.90;;;;;;5122275;27;20125;-75
2022/06/06 03:58:03;;;;;;;19.10;11.45;;;14.30;99.90;;;;;;5144502;27;20099;-75
2022/06/06 04:00:29;;;;;;;26.15;12.50;;;14.20;99.90;;;;;;5138596;27;20039;-75
2022/06/06 04:02:56;;;;;;;20.02;11.10;;;14.20;99.90;;;;;;5136809;27;20089;-75
2022/06/06 04:05:22;;;;;;;22.50;11.27;;;14.20;99.90;;;;;;5143124;27;20130;-75
2022/06/06 04:07:49;;;;;;;21.95;11.27;;;14.20;99.90;;;;;;5139705;27;20493;-75
2022/06/06 04:10:16;;;;;;;21.40;11.82;;;14.30;99.90;;;;;;5136687;27;20393;-75
2022/06/06 04:13:32;;;;;;;21.60;12.02;;;14.20;99.90;;;;;;5138384;27;20042;-75
2022/06/06 04:16:11;;;;;;;21.70;12.88;;;14.30;99.90;;;;;;5057817;28;20539;-75
2022/06/06 04:19:18;;;;;;;25.13;12.65;;;14.20;99.90;;;;;;5046406;28;20645;-75
2022/06/06 04:22:06;;;;;;;25.50;13.60;;;14.10;99.90;;;;;;5070726;27;20493;-75
2022/06/06 04:25:14;;;;;;;29.50;14.25;;;14.20;99.90;;;;;;5131543;27;20397;-74
2022/06/06 04:27:59;;;;;;;33.33;16.02;;;14.10;99.90;;;;;;5115932;27;20500;-75
2022/06/06 04:30:58;;;;;;;34.13;17.90;;;14.10;99.90;;;;;;5137709;27;20409;-75
2022/06/06 04:33:36;;;;;;;31.77;17.63;;;14.10;99.90;;;;;;5130922;27;20070;-74
2022/06/06 04:36:16;;;;;;;32.28;18.77;;;14.20;99.90;;;;;;5132225;27;20393;-75
2022/06/06 04:38:59;;;;;;;34.97;18.63;;;14.10;99.90;;;;;;5120367;27;20430;-75
2022/06/06 04:41:31;;;;;;;30.58;17.58;;;14.10;99.90;;;;;;5139816;27;20091;-74
2022/06/06 04:44:17;;;;;;;32.60;18.73;;;14.10;99.90;;;;;;5125235;27;20378;-74
2022/06/06 04:46:49;;;;;;;31.70;17.25;;;14.20;99.90;;;;;;5126192;27;20458;-74
2022/06/06 04:49:15;;;;;;;32.20;17.45;;;14.20;99.90;;;;;;5132304;27;20370;-73
2022/06/06 04:51:43;;;;;;;35.33;18.05;;;14.20;99.90;;;;;;5132855;27;20543;-73
2022/06/06 04:54:18;;;;;;;32.95;18.70;;;14.20;99.90;;;;;;5153270;27;20564;-73
2022/06/06 04:56:45;;;;;;;33.17;18.50;;;14.20;99.90;;;;;;5129917;27;20588;-73
2022/06/06 04:59:13;;;;;;;30.30;17.25;;;14.20;99.90;;;;;;5139959;27;20518;-73
2022/06/06 05:01:39;;;;;;;27.95;16.17;;;14.20;99.90;;;;;;5131746;27;20545;-73
2022/06/06 05:04:05;;;;;;;28.23;16.38;;;14.20;99.90;;;;;;5155383;27;20481;-74
2022/06/06 05:06:56;;;;;;;24.90;15.48;;;14.20;99.90;;;;;;5151207;27;20531;-74
2022/06/06 05:10:00;;;;;;;26.40;15.98;;;14.20;99.90;;;;;;5130451;27;20583;-74
2022/06/06 05:12:47;;;;;;;24.92;14.68;;;14.30;99.90;;;;;;5135088;27;20502;-74
2022/06/06 05:15:21;;;;;;;21.23;13.63;;;14.20;99.90;;;;;;5141729;27;20042;-74
2022/06/06 05:18:22;;;;;;;22.73;14.65;;;14.20;99.90;;;;;;5133564;27;20508;-73
2022/06/06 05:20:57;;;;;;;27.88;15.13;;;14.20;99.90;;;;;;5133954;27;20485;-74
2022/06/06 05:23:55;;;;;;;27.15;15.23;;;14.30;99.90;;;;;;5145728;27;20097;-74
2022/06/06 05:26:49;;;;;;;27.35;15.70;;;14.30;99.90;;;;;;5136703;27;20443;-74
2022/06/06 05:29:32;;;;;;;26.42;15.32;;;14.30;99.90;;;;;;5112663;27;20485;-74
2022/06/06 05:32:20;;;;;;;30.17;16.05;;;14.30;99.90;;;;;;5134442;27;20459;-74
2022/06/06 05:35:08;;;;;;;28.10;15.85;;;14.30;99.90;;;;;;5128319;27;20428;-74
2022/06/06 05:38:12;;;;;;;25.42;14.07;;;14.30;99.90;;;;;;5121101;27;20505;-74
2022/06/06 05:40:45;;;;;;;24.40;15.00;;;14.30;99.90;;;;;;5142285;27;20427;-74
2022/06/06 05:43:26;;;;;;;22.95;14.05;;;14.40;99.90;;;;;;5150612;27;20556;-74
2022/06/06 05:46:01;;;;;;;24.80;14.95;;;14.30;99.90;;;;;;5123716;27;20396;-74
2022/06/06 05:48:41;;;;;;;24.30;14.90;;;14.40;99.90;;;;;;5133254;27;20431;-74
2022/06/06 05:51:39;;;;;;;28.20;14.85;;;14.40;99.90;;;;;;5145462;27;20128;-74
2022/06/06 05:54:25;;;;;;;26.15;15.25;;;14.40;99.90;;;;;;5127402;27;20043;-74
2022/06/06 05:57:10;;;;;;;25.38;15.20;;;14.40;99.90;;;;;;5113932;27;20408;-74
2022/06/06 05:59:55;;;;;;;26.17;16.20;;;14.40;99.90;;;;;;5148998;27;20390;-74
2022/06/06 06:02:29;;;;;;;27.63;16.05;;;14.40;99.90;;;;;;5128404;27;20399;-74
2022/06/06 06:05:20;;;;;;;27.90;16.30;;;14.40;99.90;;;;;;5134478;27;20034;-74
2022/06/06 06:08:07;;;;;;;27.25;15.98;;;14.50;99.90;;;;;;5130797;27;20137;-74
2022/06/06 06:10:40;;;;;;;27.95;16.73;;;14.50;99.90;;;;;;5132434;27;20382;-74
2022/06/06 06:13:15;;;;;;;27.02;15.80;;;14.50;99.90;;;;;;5135391;27;20049;-74
2022/06/06 06:15:43;;;;;;;28.15;15.48;;;14.60;99.90;;;;;;5143805;27;20461;-74
2022/06/06 06:18:31;;;;;;;28.58;15.38;;;14.60;99.90;;;;;;5151900;27;20122;-74
2022/06/06 06:21:17;;;;;;;23.98;14.65;;;14.70;99.90;;;;;;5130255;27;20453;-74
2022/06/06 06:23:52;;;;;;;23.70;12.32;;;14.70;99.90;;;;;;5140957;27;20448;-74
2022/06/06 06:26:18;;;;;;;18.40;11.48;;;14.80;99.90;;;;;;5134767;27;20035;-74
2022/06/06 06:28:47;;;;;;;16.58;11.23;;;14.90;99.90;;;;;;5139949;27;20382;-74
2022/06/06 06:31:38;;;;;;;17.55;11.48;;;14.90;99.90;;;;;;5136775;27;20385;-74
2022/06/06 06:34:10;;;;;;;19.63;12.65;;;15.10;99.90;;;;;;5138054;27;20378;-74
2022/06/06 06:36:46;;;;;;;18.90;10.93;;;15.20;99.90;;;;;;5130565;27;20431;-74
2022/06/06 06:39:35;;;;;;;19.00;11.32;;;15.40;99.90;;;;;;5130170;27;20074;-74
2022/06/06 06:42:16;;;;;;;19.83;11.38;;;15.50;99.90;;;;;;5134870;27;20126;-74
2022/06/06 06:44:53;;;;;;;18.42;11.57;;;15.70;99.90;;;;;;5131787;27;20042;-74
2022/06/06 06:47:28;;;;;;;17.83;11.68;;;15.90;99.90;;;;;;5134119;27;20143;-74
2022/06/06 06:50:18;;;;;;;18.60;11.82;;;15.80;99.90;;;;;;5142544;27;20070;-74
2022/06/06 06:53:13;;;;;;;19.10;11.70;;;15.80;99.90;;;;;;5152246;27;20076;-74
2022/06/06 06:56:01;;;;;;;22.00;11.48;;;15.90;99.90;;;;;;5133650;27;20058;-74
2022/06/06 06:59:08;;;;;;;19.30;11.13;;;15.90;99.90;;;;;;5140152;27;20031;-74
2022/06/06 07:11:10;;;;;;;19.45;12.07;;;15.80;99.90;;;;;;5134484;27;20137;-74
2022/06/06 07:13:56;;;;;;;20.10;12.20;;;15.80;99.90;;;;;;5141211;27;20042;-74
2022/06/06 07:16:24;;;;;;;19.20;12.30;;;15.90;99.90;;;;;;5137748;27;20039;-74
2022/06/06 07:18:58;;;;;;;20.52;12.65;;;15.90;99.90;;;;;;5138515;27;20069;-74
2022/06/06 07:21:25;;;;;;;22.50;13.23;;;15.90;99.90;;;;;;5141809;27;20087;-74
2022/06/06 07:23:54;;;;;;;24.00;14.05;;;16.00;99.90;;;;;;5137706;27;20063;-74
2022/06/06 07:26:21;;;;;;;22.08;13.75;;;16.00;99.90;;;;;;5144114;27;20046;-74
2022/06/06 07:28:47;;;;;;;20.25;14.05;;;16.00;99.90;;;;;;5138114;27;20049;-74
2022/06/06 07:31:18;;;;;;;21.88;13.70;;;16.10;99.90;;;;;;5139852;27;20042;-74
2022/06/06 07:34:14;;;;;;;20.00;13.40;;;16.00;99.90;;;;;;5129292;27;20466;-74
2022/06/06 07:37:16;;;;;;;22.40;13.63;;;16.00;99.90;;;;;;5126322;27;20035;-74
2022/06/06 07:40:06;;;;;;;24.58;14.95;;;15.90;99.90;;;;;;5129228;27;20061;-74
2022/06/06 07:42:48;;;;;;;25.70;14.57;;;15.80;99.90;;;;;;5147719;27;20464;-74
2022/06/06 07:45:38;;;;;;;27.77;15.77;;;15.90;99.90;;;;;;5136940;27;20078;-74
2022/06/06 07:48:39;;;;;;;21.33;13.60;;;15.80;99.90;;;;;;5135096;27;20397;-74
2022/06/06 07:51:15;;;;;;;24.83;14.45;;;15.80;99.90;;;;;;5129240;27;20042;-74
2022/06/06 07:53:58;;;;;;;24.13;15.05;;;15.70;99.90;;;;;;5130019;27;20087;-74
2022/06/06 07:56:36;;;;;;;20.77;12.43;;;15.70;99.90;;;;;;5139286;27;20097;-74
2022/06/06 07:59:11;;;;;;;15.88;10.35;;;15.80;99.90;;;;;;5134391;27;20121;-74
2022/06/06 08:02:00;;;;;;;14.27;9.23;;;16.00;99.90;;;;;;5139287;27;20091;-74
2022/06/06 08:04:46;;;;;;;16.30;10.18;;;16.20;99.90;;;;;;5136703;27;20030;-74
2022/06/06 08:07:36;;;;;;;14.32;9.43;;;16.30;99.90;;;;;;5121579;27;20062;-73
2022/06/06 08:10:15;;;;;;;13.73;7.65;;;16.60;99.90;;;;;;5137457;27;20038;-74
2022/06/06 08:13:07;;;;;;;12.02;7.38;;;16.80;99.90;;;;;;5125933;27;20030;-74
2022/06/06 08:15:51;;;;;;;10.88;6.55;;;16.90;99.90;;;;;;5092262;27;20053;-74
2022/06/06 08:18:48;;;;;;;10.23;6.07;;;17.00;99.90;;;;;;5132542;27;20131;-74
2022/06/06 08:21:36;;;;;;;12.40;6.25;;;16.90;99.90;;;;;;5133563;27;20057;-73
2022/06/06 08:24:06;;;;;;;10.50;7.18;;;16.80;99.90;;;;;;5130696;27;20444;-74
2022/06/06 08:26:36;;;;;;;13.98;5.72;;;16.60;99.90;;;;;;5136407;27;20034;-74
2022/06/06 08:29:06;;;;;;;8.77;5.57;;;16.50;99.90;;;;;;5153563;27;20038;-74
2022/06/06 08:31:31;;;;;;;10.00;5.05;;;16.70;99.90;;;;;;5140224;27;20039;-74
2022/06/06 08:33:57;;;;;;;8.23;4.70;;;16.80;99.90;;;;;;5138863;27;20606;-74
2022/06/06 08:36:58;;;;;;;10.95;4.32;;;16.70;99.90;;;;;;5148807;27;20075;-73
2022/06/06 08:39:27;;;;;;;9.93;4.47;;;16.80;99.90;;;;;;5138110;27;20455;-74
2022/06/06 08:42:24;;;;;;;7.13;3.33;;;16.80;99.90;;;;;;5135150;27;20073;-73
2022/06/06 08:45:21;;;;;;;8.68;2.63;;;16.90;99.90;;;;;;5086746;27;20085;-74
2022/06/06 08:48:21;;;;;;;8.13;2.47;;;17.30;99.90;;;;;;5145261;27;20365;-74
2022/06/06 08:50:59;;;;;;;5.10;1.90;;;17.60;99.90;;;;;;5132869;27;20404;-74
2022/06/06 08:53:52;;;;;;;7.15;2.13;;;17.80;99.90;;;;;;5148220;27;20400;-73
2022/06/06 08:56:28;;;;;;;5.13;1.80;;;18.00;99.90;;;;;;5137102;27;20476;-74
2022/06/06 08:59:21;;;;;;;6.28;1.95;;;18.10;99.90;;;;;;5135449;27;20514;-73
2022/06/06 09:02:30;;;;;;;4.95;2.05;;;18.20;99.90;;;;;;5140560;27;20172;-74
2022/06/06 09:05:15;;;;;;;5.57;2.22;;;18.50;99.90;;;;;;5132202;27;20397;-73
2022/06/06 09:08:11;;;;;;;4.45;1.90;;;18.30;99.90;;;;;;5149777;27;20488;-73
2022/06/06 09:10:53;;;;;;;5.47;2.40;;;18.10;99.90;;;;;;5150567;27;20484;-73
2022/06/06 09:13:56;;;;;;;5.50;2.22;;;17.70;99.90;;;;;;5139328;27;20075;-73
2022/06/06 09:17:02;;;;;;;8.60;2.03;;;17.50;99.90;;;;;;5137638;27;20031;-73
2022/06/06 09:19:48;;;;;;;4.00;1.63;;;17.50;99.90;;;;;;5128377;27;20038;-74
2022/06/06 09:22:25;;;;;;;9.18;2.15;;;17.70;99.90;;;;;;5127771;27;20038;-73
2022/06/06 09:24:51;;;;;;;8.75;2.05;;;17.90;99.90;;;;;;5135294;27;20038;-73
2022/06/06 09:27:47;;;;;;;5.13;2.10;;;18.00;99.90;;;;;;5140039;27;20404;-73
2022/06/06 09:30:39;;;;;;;5.60;2.30;;;17.60;99.90;;;;;;5135309;27;20046;-74
2022/06/06 09:33:29;;;;;;;5.37;2.20;;;17.40;99.90;;;;;;5118237;27;20154;-74
2022/06/06 09:36:06;;;;;;;9.63;2.35;;;17.40;99.90;;;;;;5133484;27;20793;-74
2022/06/06 09:38:51;;;;;;;10.48;2.70;;;17.40;99.90;;;;;;5149208;27;20041;-73
2022/06/06 09:41:40;;;;;;;4.35;2.17;;;17.50;99.90;;;;;;5143389;27;20042;-73
2022/06/06 09:44:37;;;;;;;8.18;2.05;;;17.80;99.90;;;;;;5135426;27;20042;-73
2022/06/06 09:47:47;;;;;;;7.03;2.20;;;17.80;99.90;;;;;;5130292;27;20380;-74
2022/06/06 09:50:36;;;;;;;4.90;1.70;;;17.80;99.90;;;;;;5133832;27;20042;-73
2022/06/06 09:53:29;;;;;;;3.95;1.70;;;17.90;99.90;;;;;;5133004;27;20042;-74
2022/06/06 09:59:39;;;;;;;5.85;2.00;;;18.50;99.90;;;;;;5130976;27;20043;-73
2022/06/06 10:02:25;;;;;;;4.63;1.40;;;18.60;99.90;;;;;;5135107;27;20124;-74
2022/06/06 10:05:32;;;;;;;4.43;1.33;;;18.50;99.90;;;;;;5126623;27;20058;-73
2022/06/06 10:08:17;;;;;;;8.48;2.47;;;18.30;99.90;;;;;;5131043;27;21032;-74
2022/06/06 10:11:13;;;;;;;5.00;1.55;;;17.70;99.90;;;;;;5125576;27;20091;-74
2022/06/06 10:14:14;;;;;;;4.78;1.75;;;16.90;99.90;;;;;;5143286;27;20050;-73
2022/06/06 10:17:18;;;;;;;6.22;1.85;;;16.70;99.90;;;;;;5141499;27;20041;-73
2022/06/06 10:20:02;;;;;;;4.72;1.92;;;16.70;99.90;;;;;;5148017;27;20039;-74
2022/06/06 10:22:35;;;;;;;5.15;2.50;;;16.90;99.90;;;;;;5136266;27;20039;-74
2022/06/06 10:25:28;;;;;;;5.70;1.70;;;17.30;99.90;;;;;;5132715;27;20046;-74
2022/06/06 10:28:09;;;;;;;;;;;17.50;99.90;;;;;;5136208;27;20043;-74
2022/06/06 10:31:01;;;;;;;4.88;1.67;;;17.60;99.90;;;;;;5145724;27;19922;-74
2022/06/06 10:33:30;;;;;;;4.60;1.65;;;17.80;99.90;;;;;;5145612;27;20034;-74
2022/06/06 10:36:05;;;;;;;5.93;1.50;;;17.80;99.90;;;;;;5137778;27;20046;-74
2022/06/06 10:39:01;;;;;;;3.63;1.63;;;17.40;99.90;;;;;;5151954;27;20037;-74
2022/06/06 10:41:48;;;;;;;4.43;1.50;;;17.20;99.90;;;;;;5150466;27;20084;-74
2022/06/06 10:44:58;;;;;;;5.50;1.80;;;17.10;99.90;;;;;;5138235;27;20035;-74
2022/06/06 10:47:42;;;;;;;4.63;1.63;;;16.90;99.90;;;;;;5125016;27;20050;-74
2022/06/06 10:50:15;;;;;;;3.50;1.73;;;16.80;99.90;;;;;;5135484;27;20096;-74
2022/06/06 10:53:06;;;;;;;3.08;1.70;;;16.70;99.90;;;;;;5137869;27;20061;-74
2022/06/06 10:55:46;;;;;;;3.60;2.35;;;16.60;99.90;;;;;;5142354;27;20095;-74
2022/06/06 10:58:39;;;;;;;6.20;1.98;;;16.30;99.90;;;;;;5137105;27;20415;-74
2022/06/06 11:01:32;;;;;;;6.78;2.58;;;16.10;99.90;;;;;;5145211;27;20518;-74
2022/06/06 11:04:22;;;;;;;2.20;1.42;;;16.00;99.90;;;;;;5135549;27;20042;-74
2022/06/06 11:07:08;;;;;;;3.30;1.30;;;15.90;99.90;;;;;;5146303;27;20042;-74
2022/06/06 11:10:16;;;;;;;2.88;1.25;;;15.70;99.90;;;;;;5134108;27;20035;-74
2022/06/06 11:12:58;;;;;;;4.35;1.33;;;15.50;99.90;;;;;;5134050;27;20069;-74
2022/06/06 11:15:36;;;;;;;3.53;1.52;;;15.40;99.90;;;;;;5150071;27;20038;-74
2022/06/06 11:18:19;;;;;;;2.97;1.20;;;15.30;99.90;;;;;;5121381;27;20073;-74
2022/06/06 11:21:14;;;;;;;2.67;1.08;;;15.20;99.90;;;;;;5146383;27;20038;-74
2022/06/06 11:23:48;;;;;;;2.58;1.33;;;15.20;99.90;;;;;;5148338;27;20070;-74
2022/06/06 11:26:44;;;;;;;5.15;1.52;;;15.10;99.90;;;;;;5135273;27;20039;-74
2022/06/06 11:29:37;;;;;;;2.00;1.30;;;15.00;99.90;;;;;;5150905;27;20039;-74
2022/06/06 11:32:25;;;;;;;2.53;1.25;;;15.10;99.90;;;;;;5136096;27;20489;-74
2022/06/06 11:35:21;;;;;;;3.58;1.50;;;15.30;99.90;;;;;;5134621;27;20135;-74
2022/06/06 11:38:24;;;;;;;3.10;1.20;;;15.60;99.90;;;;;;5135001;27;20035;-74
2022/06/06 11:41:05;;;;;;;;;;;16.20;99.90;;;;;;5151967;27;20099;-74
2022/06/06 11:44:00;;;;;;;4.15;1.50;;;16.80;99.90;;;;;;5144367;27;19919;-74
2022/06/06 11:47:00;;;;;;;2.58;1.58;;;17.30;99.90;;;;;;5136255;27;20042;-74
2022/06/06 11:49:57;;;;;;;4.18;1.90;;;17.60;99.90;;;;;;5135023;27;20081;-74
2022/06/06 11:52:28;;;;;;;2.13;1.30;;;17.90;99.90;;;;;;5135036;27;20039;-74
2022/06/06 11:55:27;;;;;;;3.05;1.30;;;18.10;99.90;;;;;;5141586;27;20053;-74
2022/06/06 11:58:22;;;;;;;3.40;1.20;;;18.40;99.90;;;;;;5140920;27;20409;-74
2022/06/06 12:01:09;;;;;;;3.85;1.20;;;18.80;99.90;;;;;;5133886;27;20057;-74
2022/06/06 12:04:10;;;;;;;2.05;1.00;;;19.10;99.90;;;;;;5134370;27;20102;-74
2022/06/06 12:07:14;;;;;;;2.05;0.90;;;19.20;99.90;;;;;;5118756;27;20076;-74
2022/06/06 12:10:25;;;;;;;3.67;0.90;;;19.30;99.90;;;;;;5131951;27;20499;-74
2022/06/06 12:13:24;;;;;;;3.00;0.90;;;19.20;99.90;;;;;;5059009;27;20554;-73
2022/06/06 12:16:29;;;;;;;4.00;0.80;;;19.20;99.90;;;;;;5133948;27;20129;-74
2022/06/06 12:19:11;;;;;;;1.95;0.75;;;18.70;99.90;;;;;;5096777;27;20050;-73
2022/06/06 12:22:12;;;;;;;1.27;0.60;;;18.70;99.90;;;;;;5146367;27;20118;-73
2022/06/06 12:25:05;;;;;;;1.85;0.52;;;18.90;99.90;;;;;;5139499;27;20038;-73
2022/06/06 12:28:18;;;;;;;2.08;0.60;;;19.10;99.90;;;;;;5135038;27;20401;-73
2022/06/06 12:31:19;;;;;;;2.50;0.80;;;18.70;99.90;;;;;;5130541;27;20541;-73
2022/06/06 12:33:58;;;;;;;1.88;0.70;;;18.80;99.90;;;;;;5132950;27;20073;-74
2022/06/06 12:36:52;;;;;;;2.78;0.95;;;18.90;99.90;;;;;;5130942;27;20062;-74
2022/06/06 12:39:54;;;;;;;2.35;0.70;;;18.90;99.90;;;;;;5111398;27;20042;-73
2022/06/06 12:42:32;;;;;;;2.40;0.80;;;19.10;99.90;;;;;;5135466;27;20062;-73
2022/06/06 12:45:21;;;;;;;2.63;0.90;;;19.00;99.90;;;;;;5129607;27;20374;-74
2022/06/06 12:48:01;;;;;;;2.08;1.10;;;18.80;99.90;;;;;;5103293;27;20111;-73
2022/06/06 12:50:51;;;;;;;5.60;1.20;;;18.70;99.90;;;;;;5137222;27;20046;-73
2022/06/06 12:53:49;;;;;;;4.88;1.20;;;18.80;99.90;;;;;;5133052;27;20053;-73
2022/06/06 12:56:45;;;;;;;2.05;1.10;;;19.00;99.90;;;;;;5138424;27;20366;-73
2022/06/06 12:59:27;;;;;;;3.45;0.95;;;19.30;99.90;;;;;;5125146;27;20086;-73
2022/06/06 13:02:22;;;;;;;4.00;1.17;;;19.30;99.90;;;;;;5134260;27;20093;-73
2022/06/06 13:05:12;;;;;;;3.30;1.13;;;19.20;99.90;;;;;;5146286;27;20042;-73
2022/06/06 13:07:44;;;;;;;2.28;1.20;;;19.20;99.90;;;;;;5135365;27;20037;-73
2022/06/06 13:10:18;;;;;;;1.45;0.70;;;19.30;99.90;;;;;;5134096;27;20043;-74
2022/06/06 13:12:43;;;;;;;1.95;0.63;;;19.20;99.90;;;;;;5145110;27;20366;-73
2022/06/06 13:15:31;;;;;;;0.98;0.70;;;19.10;99.90;;;;;;5136684;27;20050;-73
2022/06/06 13:18:34;;;;;;;1.00;0.63;;;18.90;99.90;;;;;;5136127;27;20120;-73
2022/06/06 13:21:34;;;;;;;2.47;0.90;;;18.80;99.90;;;;;;5133776;27;20102;-73
2022/06/06 13:24:46;;;;;;;2.00;1.02;;;18.90;99.90;;;;;;5140293;27;20039;-73
2022/06/06 13:27:27;;;;;;;2.63;1.00;;;18.70;99.90;;;;;;5046765;28;20048;-73
2022/06/06 13:29:54;;;;;;;2.07;0.97;;;18.60;99.90;;;;;;5051056;28;20119;-73
2022/06/06 13:32:37;;;;;;;2.20;1.00;;;18.40;99.90;;;;;;5091953;27;20277;-73
2022/06/06 13:35:20;;;;;;;2.97;1.40;;;18.30;99.90;;;;;;5118317;27;20042;-73
2022/06/06 13:38:05;;;;;;;3.83;1.10;;;18.10;99.90;;;;;;5150022;27;20023;-73
2022/06/06 13:41:02;;;;;;;2.28;1.20;;;18.10;99.90;;;;;;5147736;27;20397;-73
2022/06/06 13:43:52;;;;;;;2.67;1.50;;;17.80;99.90;;;;;;5107983;27;20121;-73
2022/06/06 13:46:21;;;;;;;5.30;1.60;;;17.60;99.90;;;;;;5134716;27;20409;-73
2022/06/06 13:49:13;;;;;;;2.53;1.80;;;17.40;99.90;;;;;;5141708;27;20397;-73
2022/06/06 13:52:02;;;;;;;4.65;1.90;;;17.10;99.90;;;;;;5127528;27;20392;-74
2022/06/06 13:54:33;;;;;;;5.68;2.00;;;16.90;99.90;;;;;;5147944;27;20464;-74
2022/06/06 13:57:21;;;;;;;6.75;2.10;;;16.80;99.90;;;;;;5137465;27;20389;-74
2022/06/06 13:59:52;;;;;;;3.05;1.92;;;16.50;99.90;;;;;;5149011;27;20389;-74
2022/06/06 14:03:09;;;;;;;5.47;2.47;;;16.30;99.90;;;;;;5141101;27;20435;-74
2022/06/06 14:06:02;;;;;;;2.45;2.28;;;16.20;99.90;;;;;;5116689;27;20296;-75
2022/06/06 14:08:48;;;;;;;5.05;2.97;;;16.10;99.90;;;;;;5115547;27;20035;-75
2022/06/06 14:11:20;;;;;;;3.47;3.17;;;16.10;99.90;;;;;;5120219;27;20397;-75
2022/06/06 14:13:46;;;;;;;;;;;16.10;99.90;;;;;;5127408;27;20986;-75